sensor_id;sensor_type;location;lat;lon;timestamp;pressure;altitude;pressure_sealevel;temperature
66299;BMP180;53098;47.658;8.578;2024-03-06T00:01:26;228747.00;;;220.60
66299;BMP180;53098;47.658;8.578;2024-03-06T00:03:52;228747.00;;;220.60
66299;BMP180;53098;47.658;8.578;2024-03-06T00:06:17;228747.00;;;220.60
66299;BMP180;53098;47.658;8.578;2024-03-06T00:08:42;228747.00;;;220.60
66299;BMP180;53098;47.658;8.578;2024-03-06T00:11:08;228747.00;;;220.60
66299;BMP180;53098;47.658;8.578;2024-03-06T00:13:33;228747.00;;;220.60
66299;BMP180;53098;47.658;8.578;2024-03-06T00:15:58;228747.00;;;220.60
66299;BMP180;53098;47.658;8.578;2024-03-06T00:18:24;228747.00;;;220.60
66299;BMP180;53098;47.658;8.578;2024-03-06T00:20:49;228747.00;;;220.60
66299;BMP180;53098;47.658;8.578;2024-03-06T00:23:15;228747.00;;;220.60
66299;BMP180;53098;47.658;8.578;2024-03-06T00:25:40;228747.00;;;220.60
66299;BMP180;53098;47.658;8.578;2024-03-06T00:28:06;228747.00;;;220.60
66299;BMP180;53098;47.658;8.578;2024-03-06T00:30:31;228747.00;;;220.60
66299;BMP180;53098;47.658;8.578;2024-03-06T00:32:56;228747.00;;;220.60
66299;BMP180;53098;47.658;8.578;2024-03-06T00:35:22;228747.00;;;220.60
66299;BMP180;53098;47.658;8.578;2024-03-06T00:37:47;228747.00;;;220.60
66299;BMP180;53098;47.658;8.578;2024-03-06T00:40:13;228747.00;;;220.60
66299;BMP180;53098;47.658;8.578;2024-03-06T00:42:38;228747.00;;;220.60
66299;BMP180;53098;47.658;8.578;2024-03-06T00:45:04;228747.00;;;220.60
66299;BMP180;53098;47.658;8.578;2024-03-06T00:47:29;228747.00;;;220.60
66299;BMP180;53098;47.658;8.578;2024-03-06T00:49:55;228747.00;;;220.60
66299;BMP180;53098;47.658;8.578;2024-03-06T00:52:20;228747.00;;;220.60
66299;BMP180;53098;47.658;8.578;2024-03-06T00:54:45;228747.00;;;220.60
66299;BMP180;53098;47.658;8.578;2024-03-06T00:57:11;228747.00;;;220.60
66299;BMP180;53098;47.658;8.578;2024-03-06T00:59:36;228747.00;;;220.60
66299;BMP180;53098;47.658;8.578;2024-03-06T01:02:02;228747.00;;;220.60
66299;BMP180;53098;47.658;8.578;2024-03-06T01:04:27;228747.00;;;220.60
66299;BMP180;53098;47.658;8.578;2024-03-06T01:06:52;228747.00;;;220.60
66299;BMP180;53098;47.658;8.578;2024-03-06T01:09:18;228747.00;;;220.60
66299;BMP180;53098;47.658;8.578;2024-03-06T01:11:43;228747.00;;;220.60
66299;BMP180;53098;47.658;8.578;2024-03-06T01:14:08;228747.00;;;220.60
66299;BMP180;53098;47.658;8.578;2024-03-06T01:16:34;228747.00;;;220.60
66299;BMP180;53098;47.658;8.578;2024-03-06T01:18:59;228747.00;;;220.60
66299;BMP180;53098;47.658;8.578;2024-03-06T01:21:25;228747.00;;;220.60
66299;BMP180;53098;47.658;8.578;2024-03-06T01:23:50;228747.00;;;220.60
66299;BMP180;53098;47.658;8.578;2024-03-06T01:26:16;228747.00;;;220.60
66299;BMP180;53098;47.658;8.578;2024-03-06T01:28:41;228747.00;;;220.60
66299;BMP180;53098;47.658;8.578;2024-03-06T01:31:06;228747.00;;;220.60
66299;BMP180;53098;47.658;8.578;2024-03-06T01:33:32;228747.00;;;220.60
66299;BMP180;53098;47.658;8.578;2024-03-06T01:35:57;228747.00;;;220.60
66299;BMP180;53098;47.658;8.578;2024-03-06T01:38:23;228747.00;;;220.60
66299;BMP180;53098;47.658;8.578;2024-03-06T01:40:48;228747.00;;;220.60
66299;BMP180;53098;47.658;8.578;2024-03-06T01:43:21;228747.00;;;220.60
66299;BMP180;53098;47.658;8.578;2024-03-06T01:45:47;228747.00;;;220.60
66299;BMP180;53098;47.658;8.578;2024-03-06T01:48:13;228747.00;;;220.60
66299;BMP180;53098;47.658;8.578;2024-03-06T01:50:38;228747.00;;;220.60
66299;BMP180;53098;47.658;8.578;2024-03-06T01:53:04;228747.00;;;220.60
66299;BMP180;53098;47.658;8.578;2024-03-06T01:55:29;228747.00;;;220.60
66299;BMP180;53098;47.658;8.578;2024-03-06T01:57:55;228747.00;;;220.60
66299;BMP180;53098;47.658;8.578;2024-03-06T02:00:21;228747.00;;;220.60
66299;BMP180;53098;47.658;8.578;2024-03-06T02:02:46;228747.00;;;220.60
66299;BMP180;53098;47.658;8.578;2024-03-06T02:05:12;228747.00;;;220.60
66299;BMP180;53098;47.658;8.578;2024-03-06T02:07:38;228747.00;;;220.60
66299;BMP180;53098;47.658;8.578;2024-03-06T02:10:05;228747.00;;;220.60
66299;BMP180;53098;47.658;8.578;2024-03-06T02:12:30;228747.00;;;220.60
66299;BMP180;53098;47.658;8.578;2024-03-06T02:14:56;228747.00;;;220.60
66299;BMP180;53098;47.658;8.578;2024-03-06T02:17:21;228747.00;;;220.60
66299;BMP180;53098;47.658;8.578;2024-03-06T02:19:47;228747.00;;;220.60
66299;BMP180;53098;47.658;8.578;2024-03-06T02:22:12;228747.00;;;220.60
66299;BMP180;53098;47.658;8.578;2024-03-06T02:24:44;228747.00;;;220.60
66299;BMP180;53098;47.658;8.578;2024-03-06T02:27:09;228747.00;;;220.60
66299;BMP180;53098;47.658;8.578;2024-03-06T02:29:35;228747.00;;;220.60
66299;BMP180;53098;47.658;8.578;2024-03-06T02:32:00;228747.00;;;220.60
66299;BMP180;53098;47.658;8.578;2024-03-06T02:34:26;228747.00;;;220.60
66299;BMP180;53098;47.658;8.578;2024-03-06T02:36:51;228747.00;;;220.60
66299;BMP180;53098;47.658;8.578;2024-03-06T02:39:16;80046.00;;;5.40
66299;BMP180;53098;47.658;8.578;2024-03-06T02:41:42;96402.00;;;5.20
66299;BMP180;53098;47.658;8.578;2024-03-06T02:44:07;96407.00;;;5.30
66299;BMP180;53098;47.658;8.578;2024-03-06T02:46:33;96409.00;;;5.20
66299;BMP180;53098;47.658;8.578;2024-03-06T02:48:58;96406.00;;;5.30
66299;BMP180;53098;47.658;8.578;2024-03-06T02:51:24;96408.00;;;5.30
66299;BMP180;53098;47.658;8.578;2024-03-06T02:53:49;96411.00;;;5.30
66299;BMP180;53098;47.658;8.578;2024-03-06T02:56:18;96411.00;;;5.40
66299;BMP180;53098;47.658;8.578;2024-03-06T02:58:44;96418.00;;;5.30
66299;BMP180;53098;47.658;8.578;2024-03-06T03:01:10;96420.00;;;5.40
66299;BMP180;53098;47.658;8.578;2024-03-06T03:03:36;96415.00;;;5.30
66299;BMP180;53098;47.658;8.578;2024-03-06T03:06:01;96429.00;;;5.30
66299;BMP180;53098;47.658;8.578;2024-03-06T03:08:27;96425.00;;;5.30
66299;BMP180;53098;47.658;8.578;2024-03-06T03:10:53;96429.00;;;5.20
66299;BMP180;53098;47.658;8.578;2024-03-06T03:13:18;96433.00;;;5.10
66299;BMP180;53098;47.658;8.578;2024-03-06T03:15:44;96431.00;;;5.30
66299;BMP180;53098;47.658;8.578;2024-03-06T03:18:09;96428.00;;;5.10
66299;BMP180;53098;47.658;8.578;2024-03-06T03:20:35;96425.00;;;5.20
66299;BMP180;53098;47.658;8.578;2024-03-06T03:23:01;96437.00;;;5.30
66299;BMP180;53098;47.658;8.578;2024-03-06T03:25:26;146208.00;;;5.30
66299;BMP180;53098;47.658;8.578;2024-03-06T03:27:52;96427.00;;;5.10
66299;BMP180;53098;47.658;8.578;2024-03-06T03:30:17;96427.00;;;5.00
66299;BMP180;53098;47.658;8.578;2024-03-06T03:32:43;96431.00;;;5.20
66299;BMP180;53098;47.658;8.578;2024-03-06T03:35:08;96428.00;;;5.20
66299;BMP180;53098;47.658;8.578;2024-03-06T03:37:34;96425.00;;;5.20
66299;BMP180;53098;47.658;8.578;2024-03-06T03:40:00;96419.00;;;5.10
66299;BMP180;53098;47.658;8.578;2024-03-06T03:42:25;96427.00;;;5.20
66299;BMP180;53098;47.658;8.578;2024-03-06T03:44:50;96426.00;;;5.20
66299;BMP180;53098;47.658;8.578;2024-03-06T03:47:16;96421.00;;;5.30
66299;BMP180;53098;47.658;8.578;2024-03-06T03:49:41;96431.00;;;5.10
66299;BMP180;53098;47.658;8.578;2024-03-06T03:52:06;96423.00;;;5.10
66299;BMP180;53098;47.658;8.578;2024-03-06T03:54:32;96430.00;;;5.20
66299;BMP180;53098;47.658;8.578;2024-03-06T03:56:57;96430.00;;;5.10
66299;BMP180;53098;47.658;8.578;2024-03-06T03:59:23;96438.00;;;5.20
66299;BMP180;53098;47.658;8.578;2024-03-06T04:01:48;96442.00;;;5.20
66299;BMP180;53098;47.658;8.578;2024-03-06T04:04:13;96437.00;;;5.20
66299;BMP180;53098;47.658;8.578;2024-03-06T04:06:39;96443.00;;;5.10
66299;BMP180;53098;47.658;8.578;2024-03-06T04:09:04;96450.00;;;5.00
66299;BMP180;53098;47.658;8.578;2024-03-06T04:11:30;96452.00;;;5.10
66299;BMP180;53098;47.658;8.578;2024-03-06T04:13:55;96458.00;;;5.00
66299;BMP180;53098;47.658;8.578;2024-03-06T04:16:21;96462.00;;;5.00
66299;BMP180;53098;47.658;8.578;2024-03-06T04:18:46;96449.00;;;4.70
66299;BMP180;53098;47.658;8.578;2024-03-06T04:21:12;96460.00;;;4.80
66299;BMP180;53098;47.658;8.578;2024-03-06T04:23:37;96463.00;;;4.80
66299;BMP180;53098;47.658;8.578;2024-03-06T04:26:03;96457.00;;;4.40
66299;BMP180;53098;47.658;8.578;2024-03-06T04:28:29;96459.00;;;4.40
66299;BMP180;53098;47.658;8.578;2024-03-06T04:30:55;228747.00;;;220.60
66299;BMP180;53098;47.658;8.578;2024-03-06T04:33:20;228747.00;;;220.60
66299;BMP180;53098;47.658;8.578;2024-03-06T04:35:46;96463.00;;;4.70
66299;BMP180;53098;47.658;8.578;2024-03-06T04:38:11;96468.00;;;4.40
66299;BMP180;53098;47.658;8.578;2024-03-06T04:40:37;228747.00;;;220.60
66299;BMP180;53098;47.658;8.578;2024-03-06T04:43:02;228747.00;;;220.60
66299;BMP180;53098;47.658;8.578;2024-03-06T04:45:27;228747.00;;;220.60
66299;BMP180;53098;47.658;8.578;2024-03-06T04:47:53;96478.00;;;4.10
66299;BMP180;53098;47.658;8.578;2024-03-06T04:50:18;96477.00;;;4.00
66299;BMP180;53098;47.658;8.578;2024-03-06T04:52:44;228747.00;;;220.60
66299;BMP180;53098;47.658;8.578;2024-03-06T04:55:09;96484.00;;;4.40
66299;BMP180;53098;47.658;8.578;2024-03-06T04:57:34;96479.00;;;4.20
66299;BMP180;53098;47.658;8.578;2024-03-06T05:00:00;96476.00;;;3.80
66299;BMP180;53098;47.658;8.578;2024-03-06T05:02:25;96491.00;;;4.10
66299;BMP180;53098;47.658;8.578;2024-03-06T05:04:51;96488.00;;;4.10
66299;BMP180;53098;47.658;8.578;2024-03-06T05:07:16;96490.00;;;4.30
66299;BMP180;53098;47.658;8.578;2024-03-06T05:09:41;96483.00;;;4.10
66299;BMP180;53098;47.658;8.578;2024-03-06T05:12:07;96492.00;;;4.20
66299;BMP180;53098;47.658;8.578;2024-03-06T05:14:33;96492.00;;;4.20
66299;BMP180;53098;47.658;8.578;2024-03-06T05:16:58;96505.00;;;4.20
66299;BMP180;53098;47.658;8.578;2024-03-06T05:19:24;96503.00;;;4.20
66299;BMP180;53098;47.658;8.578;2024-03-06T05:21:49;96503.00;;;4.30
66299;BMP180;53098;47.658;8.578;2024-03-06T05:24:14;96507.00;;;4.30
66299;BMP180;53098;47.658;8.578;2024-03-06T05:26:40;96505.00;;;4.10
66299;BMP180;53098;47.658;8.578;2024-03-06T05:29:05;96513.00;;;4.00
66299;BMP180;53098;47.658;8.578;2024-03-06T05:31:30;96505.00;;;4.10
66299;BMP180;53098;47.658;8.578;2024-03-06T05:33:56;96510.00;;;4.10
66299;BMP180;53098;47.658;8.578;2024-03-06T05:36:21;96501.00;;;4.10
66299;BMP180;53098;47.658;8.578;2024-03-06T05:38:46;96518.00;;;4.20
66299;BMP180;53098;47.658;8.578;2024-03-06T05:41:12;96518.00;;;4.30
66299;BMP180;53098;47.658;8.578;2024-03-06T05:43:37;96515.00;;;3.80
66299;BMP180;53098;47.658;8.578;2024-03-06T05:46:03;96517.00;;;3.80
66299;BMP180;53098;47.658;8.578;2024-03-06T05:48:30;96511.00;;;4.00
66299;BMP180;53098;47.658;8.578;2024-03-06T05:50:55;96527.00;;;4.10
66299;BMP180;53098;47.658;8.578;2024-03-06T05:53:20;96531.00;;;4.20
66299;BMP180;53098;47.658;8.578;2024-03-06T05:55:46;96530.00;;;4.20
66299;BMP180;53098;47.658;8.578;2024-03-06T05:58:11;96531.00;;;4.10
66299;BMP180;53098;47.658;8.578;2024-03-06T06:00:37;96534.00;;;4.30
66299;BMP180;53098;47.658;8.578;2024-03-06T06:03:02;96536.00;;;4.20
66299;BMP180;53098;47.658;8.578;2024-03-06T06:05:27;96535.00;;;3.90
66299;BMP180;53098;47.658;8.578;2024-03-06T06:07:53;96542.00;;;4.10
66299;BMP180;53098;47.658;8.578;2024-03-06T06:10:18;96547.00;;;4.10
66299;BMP180;53098;47.658;8.578;2024-03-06T06:12:44;96556.00;;;4.20
66299;BMP180;53098;47.658;8.578;2024-03-06T06:15:09;96543.00;;;3.90
66299;BMP180;53098;47.658;8.578;2024-03-06T06:17:35;96558.00;;;4.10
66299;BMP180;53098;47.658;8.578;2024-03-06T06:20:01;96551.00;;;4.00
66299;BMP180;53098;47.658;8.578;2024-03-06T06:22:29;96558.00;;;3.90
66299;BMP180;53098;47.658;8.578;2024-03-06T06:24:55;96564.00;;;4.10
66299;BMP180;53098;47.658;8.578;2024-03-06T06:27:20;96563.00;;;4.10
66299;BMP180;53098;47.658;8.578;2024-03-06T06:29:46;96556.00;;;3.70
66299;BMP180;53098;47.658;8.578;2024-03-06T06:32:12;96563.00;;;4.00
66299;BMP180;53098;47.658;8.578;2024-03-06T06:34:37;96570.00;;;4.20
66299;BMP180;53098;47.658;8.578;2024-03-06T06:37:03;96560.00;;;4.00
66299;BMP180;53098;47.658;8.578;2024-03-06T06:39:28;96570.00;;;4.30
66299;BMP180;53098;47.658;8.578;2024-03-06T06:41:54;96570.00;;;3.80
66299;BMP180;53098;47.658;8.578;2024-03-06T06:44:19;96574.00;;;4.10
66299;BMP180;53098;47.658;8.578;2024-03-06T06:46:44;96582.00;;;4.10
66299;BMP180;53098;47.658;8.578;2024-03-06T06:49:10;96581.00;;;4.20
66299;BMP180;53098;47.658;8.578;2024-03-06T06:51:35;96586.00;;;4.10
66299;BMP180;53098;47.658;8.578;2024-03-06T06:54:01;96590.00;;;4.10
66299;BMP180;53098;47.658;8.578;2024-03-06T06:56:27;96581.00;;;4.00
66299;BMP180;53098;47.658;8.578;2024-03-06T06:58:52;96588.00;;;4.20
66299;BMP180;53098;47.658;8.578;2024-03-06T07:01:17;96583.00;;;4.40
66299;BMP180;53098;47.658;8.578;2024-03-06T07:03:43;96581.00;;;4.30
66299;BMP180;53098;47.658;8.578;2024-03-06T07:06:08;96577.00;;;4.00
66299;BMP180;53098;47.658;8.578;2024-03-06T07:08:33;96580.00;;;4.20
66299;BMP180;53098;47.658;8.578;2024-03-06T07:10:59;96585.00;;;4.30
66299;BMP180;53098;47.658;8.578;2024-03-06T07:13:25;96591.00;;;4.30
66299;BMP180;53098;47.658;8.578;2024-03-06T07:15:50;96595.00;;;4.30
66299;BMP180;53098;47.658;8.578;2024-03-06T07:18:15;96596.00;;;4.30
66299;BMP180;53098;47.658;8.578;2024-03-06T07:20:41;96591.00;;;4.40
66299;BMP180;53098;47.658;8.578;2024-03-06T07:23:06;96594.00;;;4.50
66299;BMP180;53098;47.658;8.578;2024-03-06T07:25:32;228747.00;;;220.60
66299;BMP180;53098;47.658;8.578;2024-03-06T07:27:57;228747.00;;;220.60
66299;BMP180;53098;47.658;8.578;2024-03-06T07:30:22;228747.00;;;220.60
66299;BMP180;53098;47.658;8.578;2024-03-06T07:32:48;96607.00;;;4.70
66299;BMP180;53098;47.658;8.578;2024-03-06T07:35:14;96595.00;;;4.70
66299;BMP180;53098;47.658;8.578;2024-03-06T07:37:39;228747.00;;;220.60
66299;BMP180;53098;47.658;8.578;2024-03-06T07:40:06;228747.00;;;220.60
66299;BMP180;53098;47.658;8.578;2024-03-06T07:42:32;228747.00;;;220.60
66299;BMP180;53098;47.658;8.578;2024-03-06T07:44:57;96610.00;;;4.50
66299;BMP180;53098;47.658;8.578;2024-03-06T07:47:23;96611.00;;;4.40
66299;BMP180;53098;47.658;8.578;2024-03-06T07:49:48;96610.00;;;4.60
66299;BMP180;53098;47.658;8.578;2024-03-06T07:52:13;96615.00;;;4.70
66299;BMP180;53098;47.658;8.578;2024-03-06T07:54:39;96617.00;;;4.80
66299;BMP180;53098;47.658;8.578;2024-03-06T07:57:04;228747.00;;;220.60
66299;BMP180;53098;47.658;8.578;2024-03-06T07:59:29;228747.00;;;220.60
66299;BMP180;53098;47.658;8.578;2024-03-06T08:01:55;228747.00;;;220.60
66299;BMP180;53098;47.658;8.578;2024-03-06T08:04:20;228747.00;;;220.60
66299;BMP180;53098;47.658;8.578;2024-03-06T08:06:46;228747.00;;;220.60
66299;BMP180;53098;47.658;8.578;2024-03-06T08:09:11;228747.00;;;220.60
66299;BMP180;53098;47.658;8.578;2024-03-06T08:11:36;228747.00;;;220.60
66299;BMP180;53098;47.658;8.578;2024-03-06T08:14:02;228747.00;;;220.60
66299;BMP180;53098;47.658;8.578;2024-03-06T08:16:27;228747.00;;;220.60
66299;BMP180;53098;47.658;8.578;2024-03-06T08:18:53;228747.00;;;220.60
66299;BMP180;53098;47.658;8.578;2024-03-06T08:21:18;228747.00;;;220.60
66299;BMP180;53098;47.658;8.578;2024-03-06T08:23:44;228747.00;;;220.60
66299;BMP180;53098;47.658;8.578;2024-03-06T08:26:09;228747.00;;;220.60
66299;BMP180;53098;47.658;8.578;2024-03-06T08:28:34;228747.00;;;220.60
66299;BMP180;53098;47.658;8.578;2024-03-06T08:31:00;228747.00;;;220.60
66299;BMP180;53098;47.658;8.578;2024-03-06T08:33:25;228747.00;;;220.60
66299;BMP180;53098;47.658;8.578;2024-03-06T08:35:51;228747.00;;;220.60
66299;BMP180;53098;47.658;8.578;2024-03-06T08:38:16;228747.00;;;220.60
66299;BMP180;53098;47.658;8.578;2024-03-06T08:40:41;228747.00;;;220.60
66299;BMP180;53098;47.658;8.578;2024-03-06T08:43:07;228747.00;;;220.60
66299;BMP180;53098;47.658;8.578;2024-03-06T08:45:32;228747.00;;;220.60
66299;BMP180;53098;47.658;8.578;2024-03-06T08:47:58;228747.00;;;220.60
66299;BMP180;53098;47.658;8.578;2024-03-06T08:50:23;228747.00;;;220.60
66299;BMP180;53098;47.658;8.578;2024-03-06T08:52:49;228747.00;;;220.60
66299;BMP180;53098;47.658;8.578;2024-03-06T08:55:14;228747.00;;;220.60
66299;BMP180;53098;47.658;8.578;2024-03-06T08:57:40;228747.00;;;220.60
66299;BMP180;53098;47.658;8.578;2024-03-06T09:00:07;228747.00;;;220.60
66299;BMP180;53098;47.658;8.578;2024-03-06T09:02:32;228747.00;;;220.60
66299;BMP180;53098;47.658;8.578;2024-03-06T09:04:58;228747.00;;;220.60
66299;BMP180;53098;47.658;8.578;2024-03-06T09:07:23;228747.00;;;220.60
66299;BMP180;53098;47.658;8.578;2024-03-06T09:09:49;228747.00;;;220.60
66299;BMP180;53098;47.658;8.578;2024-03-06T09:12:14;228747.00;;;220.60
66299;BMP180;53098;47.658;8.578;2024-03-06T09:14:40;228747.00;;;220.60
66299;BMP180;53098;47.658;8.578;2024-03-06T09:17:06;228747.00;;;220.60
66299;BMP180;53098;47.658;8.578;2024-03-06T09:19:32;228747.00;;;220.60
66299;BMP180;53098;47.658;8.578;2024-03-06T09:21:58;228747.00;;;220.60
66299;BMP180;53098;47.658;8.578;2024-03-06T09:24:24;228747.00;;;220.60
66299;BMP180;53098;47.658;8.578;2024-03-06T09:26:50;228747.00;;;220.60
66299;BMP180;53098;47.658;8.578;2024-03-06T09:29:16;228747.00;;;220.60
66299;BMP180;53098;47.658;8.578;2024-03-06T09:31:42;228747.00;;;220.60
66299;BMP180;53098;47.658;8.578;2024-03-06T09:34:08;228747.00;;;220.60
66299;BMP180;53098;47.658;8.578;2024-03-06T09:36:33;228747.00;;;220.60
66299;BMP180;53098;47.658;8.578;2024-03-06T09:38:59;228747.00;;;220.60
66299;BMP180;53098;47.658;8.578;2024-03-06T09:41:25;228747.00;;;220.60
66299;BMP180;53098;47.658;8.578;2024-03-06T09:43:50;228747.00;;;220.60
66299;BMP180;53098;47.658;8.578;2024-03-06T09:46:17;228747.00;;;220.60
66299;BMP180;53098;47.658;8.578;2024-03-06T09:48:47;228747.00;;;220.60
66299;BMP180;53098;47.658;8.578;2024-03-06T09:51:14;228747.00;;;220.60
66299;BMP180;53098;47.658;8.578;2024-03-06T09:53:40;228747.00;;;220.60
66299;BMP180;53098;47.658;8.578;2024-03-06T09:56:07;228747.00;;;220.60
66299;BMP180;53098;47.658;8.578;2024-03-06T09:58:32;228747.00;;;220.60
66299;BMP180;53098;47.658;8.578;2024-03-06T10:00:59;228747.00;;;220.60
66299;BMP180;53098;47.658;8.578;2024-03-06T10:03:25;228747.00;;;220.60
66299;BMP180;53098;47.658;8.578;2024-03-06T10:05:50;228747.00;;;220.60
66299;BMP180;53098;47.658;8.578;2024-03-06T10:08:15;228747.00;;;220.60
66299;BMP180;53098;47.658;8.578;2024-03-06T10:10:41;228747.00;;;220.60
66299;BMP180;53098;47.658;8.578;2024-03-06T10:13:06;228747.00;;;220.60
66299;BMP180;53098;47.658;8.578;2024-03-06T10:15:32;228747.00;;;220.60
66299;BMP180;53098;47.658;8.578;2024-03-06T10:18:11;228747.00;;;220.60
66299;BMP180;53098;47.658;8.578;2024-03-06T10:20:36;228747.00;;;220.60
66299;BMP180;53098;47.658;8.578;2024-03-06T10:23:02;228747.00;;;220.60
66299;BMP180;53098;47.658;8.578;2024-03-06T10:25:27;228747.00;;;220.60
66299;BMP180;53098;47.658;8.578;2024-03-06T10:28:09;228747.00;;;220.60
66299;BMP180;53098;47.658;8.578;2024-03-06T10:30:39;228747.00;;;220.60
66299;BMP180;53098;47.658;8.578;2024-03-06T10:33:05;228747.00;;;220.60
66299;BMP180;53098;47.658;8.578;2024-03-06T10:35:30;228747.00;;;220.60
66299;BMP180;53098;47.658;8.578;2024-03-06T10:37:56;228747.00;;;220.60
66299;BMP180;53098;47.658;8.578;2024-03-06T10:40:22;228747.00;;;220.60
66299;BMP180;53098;47.658;8.578;2024-03-06T10:42:48;228747.00;;;220.60
66299;BMP180;53098;47.658;8.578;2024-03-06T10:45:14;228747.00;;;220.60
66299;BMP180;53098;47.658;8.578;2024-03-06T10:47:40;228747.00;;;220.60
66299;BMP180;53098;47.658;8.578;2024-03-06T10:50:06;228747.00;;;220.60
66299;BMP180;53098;47.658;8.578;2024-03-06T10:52:33;228747.00;;;220.60
66299;BMP180;53098;47.658;8.578;2024-03-06T10:54:59;228747.00;;;220.60
66299;BMP180;53098;47.658;8.578;2024-03-06T10:57:25;228747.00;;;220.60
66299;BMP180;53098;47.658;8.578;2024-03-06T10:59:52;228747.00;;;220.60
66299;BMP180;53098;47.658;8.578;2024-03-06T11:02:18;228747.00;;;220.60
66299;BMP180;53098;47.658;8.578;2024-03-06T11:04:44;228747.00;;;220.60
66299;BMP180;53098;47.658;8.578;2024-03-06T11:07:10;228747.00;;;220.60
66299;BMP180;53098;47.658;8.578;2024-03-06T11:09:36;228747.00;;;220.60
66299;BMP180;53098;47.658;8.578;2024-03-06T11:12:02;228747.00;;;220.60
66299;BMP180;53098;47.658;8.578;2024-03-06T11:14:30;228747.00;;;220.60
66299;BMP180;53098;47.658;8.578;2024-03-06T11:19:24;228747.00;;;220.60
66299;BMP180;53098;47.658;8.578;2024-03-06T11:21:50;228747.00;;;220.60
66299;BMP180;53098;47.658;8.578;2024-03-06T11:24:17;228747.00;;;220.60
66299;BMP180;53098;47.658;8.578;2024-03-06T11:26:56;228747.00;;;220.60
66299;BMP180;53098;47.658;8.578;2024-03-06T11:29:21;228747.00;;;220.60
66299;BMP180;53098;47.658;8.578;2024-03-06T11:32:00;228747.00;;;220.60
66299;BMP180;53098;47.658;8.578;2024-03-06T11:34:26;228747.00;;;220.60
66299;BMP180;53098;47.658;8.578;2024-03-06T11:36:56;228747.00;;;220.60
66299;BMP180;53098;47.658;8.578;2024-03-06T11:39:22;228747.00;;;220.60
66299;BMP180;53098;47.658;8.578;2024-03-06T11:41:49;228747.00;;;220.60
66299;BMP180;53098;47.658;8.578;2024-03-06T11:44:16;228747.00;;;220.60
66299;BMP180;53098;47.658;8.578;2024-03-06T11:49:21;228747.00;;;220.60
66299;BMP180;53098;47.658;8.578;2024-03-06T11:51:48;228747.00;;;220.60
66299;BMP180;53098;47.658;8.578;2024-03-06T11:54:14;228747.00;;;220.60
66299;BMP180;53098;47.658;8.578;2024-03-06T11:56:40;228747.00;;;220.60
66299;BMP180;53098;47.658;8.578;2024-03-06T11:59:06;228747.00;;;220.60
66299;BMP180;53098;47.658;8.578;2024-03-06T12:01:32;228747.00;;;220.60
66299;BMP180;53098;47.658;8.578;2024-03-06T12:03:57;228747.00;;;220.60
66299;BMP180;53098;47.658;8.578;2024-03-06T12:06:23;228747.00;;;220.60
66299;BMP180;53098;47.658;8.578;2024-03-06T12:08:48;228747.00;;;220.60
66299;BMP180;53098;47.658;8.578;2024-03-06T12:11:13;228747.00;;;220.60
66299;BMP180;53098;47.658;8.578;2024-03-06T12:13:41;228747.00;;;220.60
66299;BMP180;53098;47.658;8.578;2024-03-06T12:16:07;228747.00;;;220.60
66299;BMP180;53098;47.658;8.578;2024-03-06T12:18:33;228747.00;;;220.60
66299;BMP180;53098;47.658;8.578;2024-03-06T12:21:00;228747.00;;;220.60
66299;BMP180;53098;47.658;8.578;2024-03-06T12:23:26;228747.00;;;220.60
66299;BMP180;53098;47.658;8.578;2024-03-06T12:26:08;228747.00;;;220.60
66299;BMP180;53098;47.658;8.578;2024-03-06T12:28:34;228747.00;;;220.60
66299;BMP180;53098;47.658;8.578;2024-03-06T12:31:02;228747.00;;;220.60
66299;BMP180;53098;47.658;8.578;2024-03-06T12:33:28;228747.00;;;220.60
66299;BMP180;53098;47.658;8.578;2024-03-06T12:36:05;228747.00;;;220.60
66299;BMP180;53098;47.658;8.578;2024-03-06T12:38:31;228747.00;;;220.60
66299;BMP180;53098;47.658;8.578;2024-03-06T12:40:57;228747.00;;;220.60
66299;BMP180;53098;47.658;8.578;2024-03-06T12:43:22;228747.00;;;220.60
66299;BMP180;53098;47.658;8.578;2024-03-06T12:45:48;228747.00;;;220.60
66299;BMP180;53098;47.658;8.578;2024-03-06T12:48:13;228747.00;;;220.60
66299;BMP180;53098;47.658;8.578;2024-03-06T12:50:38;228747.00;;;220.60
66299;BMP180;53098;47.658;8.578;2024-03-06T12:53:04;228747.00;;;220.60
66299;BMP180;53098;47.658;8.578;2024-03-06T12:55:29;228747.00;;;220.60
66299;BMP180;53098;47.658;8.578;2024-03-06T12:57:55;228747.00;;;220.60
66299;BMP180;53098;47.658;8.578;2024-03-06T13:00:20;228747.00;;;220.60
66299;BMP180;53098;47.658;8.578;2024-03-06T13:02:46;228747.00;;;220.60
66299;BMP180;53098;47.658;8.578;2024-03-06T13:05:11;228747.00;;;220.60
66299;BMP180;53098;47.658;8.578;2024-03-06T13:07:37;228747.00;;;220.60
66299;BMP180;53098;47.658;8.578;2024-03-06T13:10:03;228747.00;;;220.60
66299;BMP180;53098;47.658;8.578;2024-03-06T13:12:28;228747.00;;;220.60
66299;BMP180;53098;47.658;8.578;2024-03-06T13:14:54;228747.00;;;220.60
66299;BMP180;53098;47.658;8.578;2024-03-06T13:17:19;228747.00;;;220.60
66299;BMP180;53098;47.658;8.578;2024-03-06T13:19:45;228747.00;;;220.60
66299;BMP180;53098;47.658;8.578;2024-03-06T13:22:10;228747.00;;;220.60
66299;BMP180;53098;47.658;8.578;2024-03-06T13:24:36;228747.00;;;220.60
66299;BMP180;53098;47.658;8.578;2024-03-06T13:27:01;228747.00;;;220.60
66299;BMP180;53098;47.658;8.578;2024-03-06T13:29:27;228747.00;;;220.60
66299;BMP180;53098;47.658;8.578;2024-03-06T13:31:52;228747.00;;;220.60
66299;BMP180;53098;47.658;8.578;2024-03-06T13:34:18;228747.00;;;220.60
66299;BMP180;53098;47.658;8.578;2024-03-06T13:36:43;228747.00;;;220.60
66299;BMP180;53098;47.658;8.578;2024-03-06T13:39:09;228747.00;;;220.60
66299;BMP180;53098;47.658;8.578;2024-03-06T13:41:34;228747.00;;;220.60
66299;BMP180;53098;47.658;8.578;2024-03-06T13:43:59;228747.00;;;220.60
66299;BMP180;53098;47.658;8.578;2024-03-06T13:46:25;228747.00;;;220.60
66299;BMP180;53098;47.658;8.578;2024-03-06T13:48:50;228747.00;;;220.60
66299;BMP180;53098;47.658;8.578;2024-03-06T13:51:16;228747.00;;;220.60
66299;BMP180;53098;47.658;8.578;2024-03-06T13:53:41;228747.00;;;220.60